createdAt,value
2018-02-19T00:02:36.277Z,36.72
2018-02-19T00:05:16.038Z,33.67
2018-02-19T00:07:56.667Z,32.70
2018-02-19T00:10:35.595Z,34.00
2018-02-19T00:13:14.814Z,32.45
2018-02-19T00:15:56.031Z,33.70
2018-02-19T00:18:34.321Z,31.37
2018-02-19T00:21:07.744Z,30.48
2018-02-19T00:23:42.525Z,30.85
2018-02-19T00:26:21.256Z,33.40
2018-02-19T00:28:59.184Z,32.28
2018-02-19T00:31:36.835Z,31.90
2018-02-19T00:34:18.692Z,32.28
2018-02-19T00:36:58.067Z,34.40
2018-02-19T00:39:37.146Z,31.75
2018-02-19T00:42:17.329Z,31.75
2018-02-19T00:44:56.176Z,31.85
2018-02-19T00:47:35.295Z,36.65
2018-02-19T00:50:14.466Z,30.08
2018-02-19T00:52:55.106Z,32.47
2018-02-19T00:55:28.509Z,32.17
2018-02-19T00:58:05.152Z,31.70
2018-02-19T01:00:50.102Z,33.85
2018-02-19T01:03:30.943Z,35.50
2018-02-19T01:06:12.645Z,34.30
2018-02-19T01:08:51.175Z,32.67
2018-02-19T01:11:31.388Z,33.78
2018-02-19T01:14:05.304Z,34.75
2018-02-19T01:16:44.560Z,32.53
2018-02-19T01:19:26.557Z,35.53
2018-02-19T01:22:07.554Z,32.55
2018-02-19T01:24:45.323Z,29.75
2018-02-19T01:27:24.601Z,33.17
2018-02-19T01:30:03.866Z,32.55
2018-02-19T01:32:43.206Z,33.97
2018-02-19T01:35:19.868Z,33.22
2018-02-19T01:38:00.708Z,32.85
2018-02-19T01:40:40.116Z,33.90
2018-02-19T01:43:18.713Z,35.15
2018-02-19T01:45:57.967Z,33.97
2018-02-19T01:48:39.395Z,33.42
2018-02-19T01:51:18.594Z,32.97
2018-02-19T01:53:57.763Z,35.22
2018-02-19T01:56:36.769Z,35.70
2018-02-19T01:59:15.903Z,34.50
2018-02-19T02:01:55.337Z,36.47
2018-02-19T02:04:37.709Z,36.17
2018-02-19T02:07:17.447Z,37.95
2018-02-19T02:10:02.670Z,37.88
2018-02-19T02:12:43.556Z,37.40
2018-02-19T02:15:23.861Z,37.60
2018-02-19T02:18:06.217Z,36.80
2018-02-19T02:20:47.969Z,36.08
2018-02-19T02:23:32.517Z,39.60
2018-02-19T02:26:15.159Z,40.08
2018-02-19T02:28:57.039Z,40.12
2018-02-19T02:31:38.281Z,39.75
2018-02-19T02:34:15.972Z,41.55
2018-02-19T02:36:59.178Z,41.42
2018-02-19T02:39:39.532Z,40.42
2018-02-19T02:42:21.248Z,41.92
2018-02-19T02:45:01.514Z,40.70
2018-02-19T02:47:40.938Z,39.65
2018-02-19T02:50:21.451Z,36.35
2018-02-19T02:53:01.104Z,37.88
2018-02-19T02:55:41.260Z,40.05
2018-02-19T02:58:20.256Z,37.85
2018-02-19T03:01:01.006Z,40.42
2018-02-19T03:03:40.737Z,37.97
2018-02-19T03:06:19.527Z,41.70
2018-02-19T03:08:58.205Z,39.42
2018-02-19T03:11:38.521Z,40.63
2018-02-19T03:14:19.147Z,40.28
2018-02-19T03:16:58.881Z,39.30
2018-02-19T03:19:38.676Z,40.08
2018-02-19T03:22:19.820Z,39.78
2018-02-19T03:25:01.551Z,38.20
2018-02-19T03:27:43.407Z,40.38
2018-02-19T03:30:25.601Z,38.38
2018-02-19T03:33:07.775Z,41.00
2018-02-19T03:35:52.029Z,44.50
2018-02-19T03:38:32.556Z,40.85
2018-02-19T03:41:13.384Z,44.15
2018-02-19T03:43:56.960Z,40.67
2018-02-19T03:46:39.276Z,41.65
2018-02-19T03:49:22.819Z,43.65
2018-02-19T03:52:02.753Z,40.00
2018-02-19T03:54:44.152Z,41.33
2018-02-19T03:57:25.697Z,40.78
2018-02-19T04:00:07.406Z,41.70
2018-02-19T04:02:47.090Z,42.13
2018-02-19T04:05:26.436Z,41.05
2018-02-19T04:08:06.906Z,42.83
2018-02-19T04:10:46.262Z,43.00
2018-02-19T04:13:25.533Z,39.85
2018-02-19T04:16:04.943Z,42.58
2018-02-19T04:18:45.573Z,42.53
2018-02-19T04:21:27.958Z,45.03
2018-02-19T04:24:03.914Z,42.78
2018-02-19T04:26:45.711Z,43.60
2018-02-19T04:29:26.823Z,45.20
2018-02-19T04:32:11.246Z,42.62
2018-02-19T04:34:53.582Z,42.60
2018-02-19T04:37:35.060Z,43.42
2018-02-19T04:40:20.082Z,43.97
2018-02-19T04:42:55.062Z,42.97
2018-02-19T04:45:39.859Z,41.83
2018-02-19T04:48:18.722Z,42.58
2018-02-19T04:51:01.712Z,43.75
2018-02-19T04:53:40.150Z,43.50
2018-02-19T04:56:19.798Z,42.58
2018-02-19T04:59:02.566Z,44.72
2018-02-19T05:01:43.526Z,44.28
2018-02-19T05:04:24.143Z,42.00
2018-02-19T05:06:57.843Z,44.97
2018-02-19T05:09:33.616Z,43.10
2018-02-19T05:12:15.487Z,42.95
2018-02-19T05:14:57.761Z,45.72
2018-02-19T05:17:37.406Z,41.97
2018-02-19T05:20:17.093Z,41.35
2018-02-19T05:22:56.131Z,45.38
2018-02-19T05:25:34.963Z,41.37
2018-02-19T05:28:17.487Z,44.50
2018-02-19T05:30:58.932Z,44.10
2018-02-19T05:33:39.626Z,42.45
2018-02-19T05:36:14.065Z,44.50
2018-02-19T05:38:54.620Z,42.22
2018-02-19T05:41:35.782Z,42.72
2018-02-19T05:44:20.839Z,41.72
2018-02-19T05:47:02.185Z,43.80
2018-02-19T05:49:41.495Z,43.80
2018-02-19T05:52:25.743Z,45.88
2018-02-19T05:55:08.607Z,48.87
2018-02-19T05:57:45.190Z,44.90
2018-02-19T06:00:24.859Z,43.58
2018-02-19T06:03:07.575Z,43.35
2018-02-19T06:05:54.251Z,41.03
2018-02-19T06:08:27.926Z,45.28
2018-02-19T06:11:07.022Z,42.15
2018-02-19T06:13:46.913Z,41.80
2018-02-19T06:16:28.996Z,43.83
2018-02-19T06:19:05.008Z,41.22
2018-02-19T06:21:50.489Z,41.92
2018-02-19T06:24:25.536Z,40.58
2018-02-19T06:27:03.428Z,41.95
2018-02-19T06:29:44.653Z,40.00
2018-02-19T06:32:23.937Z,42.28
2018-02-19T06:35:04.349Z,42.53
2018-02-19T06:37:44.749Z,41.50
2018-02-19T06:40:23.553Z,45.28
2018-02-19T06:43:02.137Z,42.58
2018-02-19T06:45:42.821Z,44.63
2018-02-19T06:48:20.156Z,45.75
2018-02-19T06:51:01.976Z,44.60
2018-02-19T06:53:38.379Z,44.22
2018-02-19T06:56:18.118Z,45.55
2018-02-19T06:58:57.739Z,44.10
2018-02-19T07:01:39.754Z,42.72
2018-02-19T07:04:20.729Z,43.53
2018-02-19T07:07:02.602Z,40.67
2018-02-19T07:09:42.453Z,44.75
2018-02-19T07:12:22.807Z,44.05
2018-02-19T07:15:04.440Z,43.53
2018-02-19T07:17:44.518Z,40.72
2018-02-19T07:20:27.773Z,42.53
2018-02-19T07:23:07.080Z,37.80
2018-02-19T07:25:49.088Z,38.40
2018-02-19T07:28:24.600Z,38.25
2018-02-19T07:31:05.712Z,41.72
2018-02-19T07:33:45.772Z,42.85
2018-02-19T07:36:25.602Z,40.67
2018-02-19T07:39:08.548Z,42.65
2018-02-19T07:41:48.113Z,40.70
2018-02-19T07:44:22.839Z,39.33
2018-02-19T07:46:57.704Z,40.65
2018-02-19T07:49:37.872Z,41.15
2018-02-19T07:52:17.720Z,39.67
2018-02-19T07:54:52.514Z,38.80
2018-02-19T07:57:33.585Z,39.03
2018-02-19T08:00:15.408Z,38.33
2018-02-19T08:02:55.029Z,36.22
2018-02-19T08:05:33.767Z,38.47
2018-02-19T08:08:12.099Z,36.60
2018-02-19T08:10:52.708Z,35.47
2018-02-19T08:13:26.514Z,37.88
2018-02-19T08:16:00.199Z,37.80
2018-02-19T08:18:39.889Z,38.92
2018-02-19T08:21:18.808Z,33.72
2018-02-19T08:23:58.635Z,36.55
2018-02-19T08:26:39.356Z,36.15
2018-02-19T08:29:18.515Z,35.60
2018-02-19T08:31:54.900Z,36.30
2018-02-19T08:34:35.211Z,36.53
2018-02-19T08:37:15.534Z,35.17
2018-02-19T08:39:55.811Z,33.58
2018-02-19T08:42:29.477Z,34.88
2018-02-19T08:45:04.700Z,33.70
2018-02-19T08:47:38.873Z,36.20
2018-02-19T08:50:20.340Z,35.35
2018-02-19T08:52:56.015Z,36.38
2018-02-19T08:55:37.206Z,35.40
2018-02-19T08:58:17.447Z,34.97
2018-02-19T09:00:57.649Z,34.20
2018-02-19T09:03:31.886Z,37.28
2018-02-19T09:06:10.850Z,35.08
2018-02-19T09:08:48.377Z,34.95
2018-02-19T09:11:28.144Z,35.80
2018-02-19T09:14:08.484Z,29.15
2018-02-19T09:16:49.253Z,31.37
2018-02-19T09:19:29.431Z,30.83
2018-02-19T09:22:10.124Z,32.42
2018-02-19T09:24:50.393Z,31.30
2018-02-19T09:27:31.982Z,29.67
2018-02-19T09:30:07.954Z,32.08
2018-02-19T09:32:47.882Z,29.58
2018-02-19T09:35:29.674Z,31.92
2018-02-19T09:38:09.825Z,29.63
2018-02-19T09:40:48.980Z,32.13
2018-02-19T09:43:26.523Z,27.02
2018-02-19T09:46:06.571Z,30.00
2018-02-19T09:48:46.047Z,30.65
2018-02-19T09:51:25.701Z,31.20
2018-02-19T09:54:01.361Z,29.75
2018-02-19T09:56:41.855Z,30.92
2018-02-19T09:59:22.554Z,29.12
2018-02-19T10:02:01.827Z,29.92
2018-02-19T10:04:36.459Z,31.83
2018-02-19T10:07:12.195Z,32.03
2018-02-19T10:09:48.639Z,31.60
2018-02-19T10:12:23.174Z,31.58
2018-02-19T10:14:58.559Z,29.73
2018-02-19T10:17:42.327Z,29.65
2018-02-19T10:20:20.469Z,31.60
2018-02-19T10:23:00.149Z,30.45
2018-02-19T10:25:39.245Z,30.17
2018-02-19T10:28:17.773Z,30.30
2018-02-19T10:30:56.926Z,28.98
2018-02-19T10:33:36.437Z,29.20
2018-02-19T10:36:14.284Z,31.25
2018-02-19T10:38:49.830Z,31.05
2018-02-19T10:41:23.810Z,30.60
2018-02-19T10:44:02.983Z,30.83
2018-02-19T10:46:42.165Z,30.15
2018-02-19T10:49:16.819Z,29.55
2018-02-19T10:51:53.512Z,30.50
2018-02-19T10:54:34.218Z,28.17
2018-02-19T10:57:15.614Z,28.62
2018-02-19T10:59:57.861Z,28.60
2018-02-19T11:02:39.311Z,30.92
2018-02-19T11:05:17.060Z,27.83
2018-02-19T11:07:58.850Z,31.75
2018-02-19T11:10:40.058Z,31.98
2018-02-19T11:13:18.613Z,30.52
2018-02-19T11:15:59.048Z,29.20
2018-02-19T11:18:34.122Z,30.80
2018-02-19T11:21:12.490Z,28.52
2018-02-19T11:23:53.900Z,32.22
2018-02-19T11:26:34.166Z,29.98
2018-02-19T11:29:07.386Z,29.37
2018-02-19T11:31:47.251Z,28.48
2018-02-19T11:34:28.945Z,30.48
2018-02-19T11:37:08.900Z,30.23
2018-02-19T11:39:44.588Z,30.77
2018-02-19T11:42:18.053Z,30.08
2018-02-19T11:44:59.032Z,27.52
2018-02-19T11:47:38.134Z,28.55
2018-02-19T11:50:19.918Z,28.20
2018-02-19T11:53:00.104Z,27.27
2018-02-19T11:55:34.332Z,29.85
2018-02-19T11:58:13.487Z,29.60
2018-02-19T12:00:48.418Z,29.20
2018-02-19T12:03:22.495Z,29.20
2018-02-19T12:06:02.014Z,28.05
2018-02-19T12:08:42.391Z,30.92
2018-02-19T12:11:18.250Z,30.25
2018-02-19T12:13:55.824Z,29.90
2018-02-19T12:16:38.279Z,29.80
2018-02-19T12:19:18.852Z,29.02
2018-02-19T12:21:52.805Z,30.37
2018-02-19T12:24:34.462Z,31.08
2018-02-19T12:27:14.703Z,30.17
2018-02-19T12:29:52.501Z,26.45
2018-02-19T12:32:34.104Z,29.12
2018-02-19T12:35:16.257Z,29.75
2018-02-19T12:37:55.210Z,29.48
2018-02-19T12:40:37.539Z,29.27
2018-02-19T12:43:11.475Z,29.45
2018-02-19T12:45:48.566Z,30.65
2018-02-19T12:48:28.546Z,32.78
2018-02-19T12:51:07.211Z,30.45
2018-02-19T12:53:46.544Z,30.83
2018-02-19T12:56:27.782Z,29.73
2018-02-19T12:59:06.273Z,28.10
2018-02-19T13:01:46.554Z,28.02
2018-02-19T13:04:26.192Z,28.45
2018-02-19T13:07:06.932Z,28.73
2018-02-19T13:09:42.406Z,30.98
2018-02-19T13:12:21.790Z,27.40
2018-02-19T13:15:04.446Z,28.60
2018-02-19T13:17:45.065Z,27.77
2018-02-19T13:20:18.886Z,30.77
2018-02-19T13:23:01.381Z,31.10
2018-02-19T13:25:43.886Z,28.35
2018-02-19T13:28:20.315Z,31.52
2018-02-19T13:30:54.324Z,30.60
2018-02-19T13:33:28.302Z,32.55
2018-02-19T13:36:09.042Z,28.80
2018-02-19T13:38:49.610Z,30.30
2018-02-19T13:41:26.085Z,28.00
2018-02-19T13:44:07.003Z,28.73
2018-02-19T13:46:41.427Z,28.98
2018-02-19T13:49:15.351Z,29.30
2018-02-19T13:51:51.466Z,29.15
2018-02-19T13:54:25.996Z,27.50
2018-02-19T13:57:05.704Z,26.02
2018-02-19T13:59:43.744Z,28.98
2018-02-19T14:02:24.294Z,26.10
2018-02-19T14:05:06.529Z,28.33
2018-02-19T14:07:40.750Z,28.27
2018-02-19T14:10:18.446Z,27.52
2018-02-19T14:12:52.487Z,28.20
2018-02-19T14:15:26.213Z,26.35
2018-02-19T14:18:01.399Z,28.62
2018-02-19T14:20:41.566Z,28.83
2018-02-19T14:23:23.285Z,25.55
2018-02-19T14:26:03.618Z,29.00
2018-02-19T14:28:46.914Z,26.08
2018-02-19T14:31:29.787Z,25.70
2018-02-19T14:34:04.462Z,28.83
2018-02-19T14:36:44.181Z,32.03
2018-02-19T14:39:26.140Z,29.23
2018-02-19T14:42:01.133Z,27.52
2018-02-19T14:44:37.875Z,28.27
2018-02-19T14:47:22.265Z,27.73
2018-02-19T14:49:56.217Z,26.17
2018-02-19T14:52:36.746Z,27.27
2018-02-19T14:55:17.502Z,27.70
2018-02-19T14:57:56.536Z,29.33
2018-02-19T15:00:35.752Z,27.80
2018-02-19T15:03:16.997Z,27.92
2018-02-19T15:06:00.184Z,25.40
2018-02-19T15:08:40.897Z,26.42
2018-02-19T15:11:20.443Z,25.37
2018-02-19T15:13:58.291Z,28.77
2018-02-19T15:16:37.276Z,28.40
2018-02-19T15:19:17.600Z,27.60
2018-02-19T15:21:58.294Z,28.73
2018-02-19T15:24:38.542Z,25.37
2018-02-19T15:27:19.237Z,24.65
2018-02-19T15:29:53.124Z,27.27
2018-02-19T15:32:35.085Z,27.02
2018-02-19T15:35:14.570Z,26.55
2018-02-19T15:37:47.770Z,26.50
2018-02-19T15:40:22.490Z,26.62
2018-02-19T15:42:55.345Z,25.17
2018-02-19T15:45:34.091Z,24.25
2018-02-19T15:48:13.333Z,26.92
2018-02-19T15:50:47.549Z,24.48
2018-02-19T15:53:26.418Z,32.58
2018-02-19T15:56:00.863Z,27.77
2018-02-19T15:58:39.504Z,27.52
2018-02-19T16:01:18.016Z,27.92
2018-02-19T16:03:56.380Z,25.62
2018-02-19T16:06:32.519Z,24.73
2018-02-19T16:09:10.953Z,26.10
2018-02-19T16:11:44.370Z,25.08
2018-02-19T16:14:24.191Z,23.55
2018-02-19T16:17:00.654Z,26.50
2018-02-19T16:19:45.533Z,23.02
2018-02-19T16:22:24.411Z,24.58
2018-02-19T16:25:05.056Z,26.95
2018-02-19T16:27:43.239Z,25.20
2018-02-19T16:30:21.222Z,25.88
2018-02-19T16:33:05.795Z,26.10
2018-02-19T16:35:48.474Z,26.08
2018-02-19T16:38:31.337Z,25.35
2018-02-19T16:41:09.401Z,24.83
2018-02-19T16:43:48.089Z,25.23
2018-02-19T16:46:27.255Z,25.23
2018-02-19T16:49:06.800Z,25.75
2018-02-19T16:51:46.512Z,30.15
2018-02-19T16:54:24.925Z,23.33
2018-02-19T16:57:06.472Z,23.87
2018-02-19T16:59:44.983Z,25.70
2018-02-19T17:02:24.338Z,24.90
2018-02-19T17:05:04.679Z,24.65
2018-02-19T17:07:43.493Z,24.50
2018-02-19T17:10:24.655Z,26.35
2018-02-19T17:13:03.077Z,24.55
2018-02-19T17:15:41.595Z,26.45
2018-02-19T17:18:21.585Z,26.17
2018-02-19T17:20:59.704Z,27.80
2018-02-19T17:23:33.344Z,25.80
2018-02-19T17:26:13.557Z,27.85
2018-02-19T17:28:55.035Z,27.15
2018-02-19T17:31:34.521Z,26.65
2018-02-19T17:34:15.289Z,25.98
2018-02-19T17:36:54.830Z,29.20
2018-02-19T17:39:37.105Z,27.70
2018-02-19T17:42:16.452Z,25.67
2018-02-19T17:44:57.086Z,26.55
2018-02-19T17:47:35.373Z,27.00
2018-02-19T17:50:16.329Z,28.00
2018-02-19T17:53:01.949Z,28.30
2018-02-19T17:55:47.849Z,26.48
2018-02-19T17:58:27.849Z,27.98
2018-02-19T18:01:06.676Z,26.73
2018-02-19T18:03:45.770Z,24.37
2018-02-19T18:06:23.814Z,27.83
2018-02-19T18:09:03.471Z,26.98
2018-02-19T18:11:43.100Z,28.95
2018-02-19T18:14:23.385Z,25.58
2018-02-19T18:17:02.436Z,28.50
2018-02-19T18:19:42.052Z,25.83
2018-02-19T18:22:21.540Z,27.33
2018-02-19T18:25:04.833Z,27.80
2018-02-19T18:27:43.286Z,27.45
2018-02-19T18:30:24.622Z,25.95
2018-02-19T18:33:04.055Z,26.90
2018-02-19T18:35:46.252Z,27.62
2018-02-19T18:38:27.769Z,24.42
2018-02-19T18:41:01.820Z,28.27
2018-02-19T18:43:39.976Z,26.20
2018-02-19T18:46:21.264Z,26.90
2018-02-19T18:49:00.503Z,24.92
2018-02-19T18:51:35.790Z,27.80
2018-02-19T18:54:18.053Z,27.42
2018-02-19T18:56:58.903Z,26.35
2018-02-19T18:59:37.370Z,27.42
2018-02-19T19:02:17.914Z,26.90
2018-02-19T19:05:00.336Z,27.35
2018-02-19T19:07:47.822Z,30.20
2018-02-19T19:10:30.104Z,27.48
2018-02-19T19:13:09.308Z,26.08
2018-02-19T19:15:46.983Z,27.48
2018-02-19T19:18:22.507Z,25.88
2018-02-19T19:20:56.442Z,27.42
2018-02-19T19:23:38.471Z,26.37
2018-02-19T19:26:17.104Z,27.37
2018-02-19T19:28:55.968Z,24.70
2018-02-19T19:31:34.651Z,27.62
2018-02-19T19:34:16.158Z,25.67
2018-02-19T19:36:56.948Z,26.20
2018-02-19T19:39:35.760Z,25.60
2018-02-19T19:42:14.160Z,26.62
2018-02-19T19:44:48.333Z,26.77
2018-02-19T19:47:22.353Z,25.88
2018-02-19T19:50:02.087Z,25.58
2018-02-19T19:52:40.362Z,27.37
2018-02-19T19:55:20.020Z,25.62
2018-02-19T19:58:02.465Z,26.37
2018-02-19T20:00:41.748Z,26.83
2018-02-19T20:03:22.055Z,28.77
2018-02-19T20:06:00.864Z,27.33
2018-02-19T20:08:35.265Z,28.75
2018-02-19T20:11:11.966Z,29.70
2018-02-19T20:13:46.768Z,25.85
2018-02-19T20:16:20.471Z,31.75
2018-02-19T20:18:53.178Z,28.42
2018-02-19T20:21:26.851Z,30.50
2018-02-19T20:24:05.548Z,28.58
2018-02-19T20:26:46.032Z,26.70
2018-02-19T20:29:25.219Z,26.42
2018-02-19T20:32:06.588Z,28.23
2018-02-19T20:34:46.234Z,29.85
2018-02-19T20:37:22.862Z,28.05
2018-02-19T20:40:03.240Z,30.95
2018-02-19T20:42:43.820Z,29.37
2018-02-19T20:45:23.076Z,29.90
2018-02-19T20:48:06.612Z,30.52
2018-02-19T20:50:45.426Z,31.20
2018-02-19T20:53:25.153Z,32.53
2018-02-19T20:56:05.291Z,36.85
2018-02-19T20:58:44.233Z,34.35
2018-02-19T21:01:25.032Z,33.08
2018-02-19T21:03:59.197Z,33.17
2018-02-19T21:06:40.508Z,34.25
2018-02-19T21:09:19.477Z,34.75
2018-02-19T21:11:54.507Z,33.03
2018-02-19T21:14:35.511Z,32.20
2018-02-19T21:17:14.709Z,35.53
2018-02-19T21:19:55.367Z,28.45
2018-02-19T21:22:36.259Z,32.83
2018-02-19T21:25:17.442Z,30.15
2018-02-19T21:27:55.553Z,31.00
2018-02-19T21:30:30.922Z,28.58
2018-02-19T21:33:09.078Z,32.33
2018-02-19T21:35:48.503Z,32.20
2018-02-19T21:38:28.105Z,30.12
2018-02-19T21:41:02.093Z,29.70
2018-02-19T21:43:36.047Z,30.55
2018-02-19T21:46:17.098Z,30.55
2018-02-19T21:48:55.938Z,27.85
2018-02-19T21:51:36.415Z,31.48
2018-02-19T21:54:15.435Z,32.35
2018-02-19T21:56:53.554Z,30.35
2018-02-19T21:59:27.876Z,34.05
2018-02-19T22:02:08.729Z,33.22
2018-02-19T22:04:47.070Z,27.85
2018-02-19T22:07:26.552Z,31.48
2018-02-19T22:10:04.744Z,32.30
2018-02-19T22:12:45.203Z,30.58
2018-02-19T22:15:24.709Z,30.85
2018-02-19T22:17:58.101Z,30.92
2018-02-19T22:20:31.736Z,33.20
2018-02-19T22:23:12.906Z,33.30
2018-02-19T22:25:54.051Z,30.08
2018-02-19T22:28:29.010Z,34.78
2018-02-19T22:31:03.537Z,36.58
2018-02-19T22:33:39.003Z,36.78
2018-02-19T22:36:12.343Z,31.92
2018-02-19T22:38:52.126Z,33.97
2018-02-19T22:41:26.818Z,32.55
2018-02-19T22:44:05.091Z,32.10
2018-02-19T22:46:39.254Z,29.75
2018-02-19T22:49:21.284Z,30.48
2018-02-19T22:52:01.531Z,31.05
2018-02-19T22:54:41.849Z,32.83
2018-02-19T22:57:21.290Z,29.60
2018-02-19T23:00:01.484Z,30.85
2018-02-19T23:02:36.699Z,29.35
2018-02-19T23:05:10.774Z,29.98
2018-02-19T23:07:44.247Z,30.42
2018-02-19T23:10:18.628Z,29.63
2018-02-19T23:12:52.341Z,28.83
2018-02-19T23:15:31.331Z,31.65
2018-02-19T23:18:11.821Z,29.50
2018-02-19T23:20:50.522Z,31.35
2018-02-19T23:23:32.121Z,31.92
2018-02-19T23:26:12.550Z,30.65
2018-02-19T23:28:54.950Z,29.60
2018-02-19T23:31:34.286Z,30.23
2018-02-19T23:34:12.595Z,31.85
2018-02-19T23:36:53.438Z,32.03
2018-02-19T23:39:27.640Z,29.92
2018-02-19T23:42:06.878Z,29.00
2018-02-19T23:44:47.929Z,29.63
2018-02-19T23:47:22.417Z,31.15
2018-02-19T23:50:02.505Z,31.35
2018-02-19T23:52:42.852Z,29.35
2018-02-19T23:55:22.767Z,31.40
2018-02-19T23:58:02.626Z,32.00
